^^
Station Historical Data
Daily Summary for December 6, 2017 Units:  Metric    English   Both
« Previous Day
Next Day »
Daily Weekly Monthly Yearly Custom
  High: Low: Average:
Temperature: 35.7 °C 21.7 °C 26.4 °C
Dew Point: 12.3 °C 2 °C 8.4 °C
Humidity: 49% 13% 33%
Wind Speed: 27.4km/h 0km/h 7.1km/h
Wind Gust: 35.4km/h - -
Wind- - SW
Pressure: 1009 hPa 1002.9 hPa -
Precipitation: 0 mm    
Historical Graphs
 
 
Tabular Data for December 6, 2017
Time Temperature Dew Point Pressure Wind Wind Speed Wind Gust Humidity Rainfall Rate (Hourly) solar Conditions
00:14 25.4 °C 7.5 °C 1008.7 hPa SSW 6.4 km/h 9.7 km/h 32% 0 mm 0.0 W/m2
00:35 25.5 °C 7.6 °C 1008.7 hPa SSW 7.9 km/h 9.7 km/h 32% 0 mm 0.0 W/m2
00:45 25.4 °C 7.5 °C 1008.7 hPa SSW 6.4 km/h 9.7 km/h 32% 0 mm 0.0 W/m2
00:50 25.2 °C 7.3 °C 1008.7 hPa SSW 4.7 km/h 6.4 km/h 32% 0 mm 0.0 W/m2
00:55 25 °C 7.6 °C 1008.7 hPa SSW 6.4 km/h 8 km/h 33% 0 mm 0.0 W/m2
01:05 24.7 °C 7.8 °C 1008.7 hPa SSW 7.9 km/h 9.7 km/h 34% 0 mm 0.0 W/m2
01:10 24.6 °C 7.7 °C 1008.7 hPa SSW 9.7 km/h 9.7 km/h 34% 0 mm 0.0 W/m2
01:16 24.5 °C 7.6 °C 1008.7 hPa SSW 4.7 km/h 8 km/h 34% 0 mm 0.0 W/m2
01:21 24.3 °C 7.4 °C 1008.4 hPa SSW 1.4 km/h 6.4 km/h 34% 0 mm 0.0 W/m2
01:31 23.9 °C 7.1 °C 1008.4 hPa SSW 6.4 km/h 8 km/h 34% 0 mm 0.0 W/m2
01:36 23.7 °C 7.3 °C 1008.4 hPa SSW 4.7 km/h 6.4 km/h 35% 0 mm 0.0 W/m2
01:46 23.6 °C 7.2 °C 1008.4 hPa Calm     35% 0 mm 0.0 W/m2
02:02 23.3 °C 7.4 °C 1008 hPa Calm     36% 0 mm 0.0 W/m2
02:07 23.2 °C 7.3 °C 1008 hPa Calm     36% 0 mm 0.0 W/m2
02:12 23.2 °C 7.3 °C 1007.7 hPa Calm     36% 0 mm 0.0 W/m2
02:17 23 °C 7.5 °C 1008 hPa Calm     37% 0 mm 0.0 W/m2
02:22 22.9 °C 7.4 °C 1008 hPa Calm     37% 0 mm 0.0 W/m2
02:28 22.9 °C 7.4 °C 1008 hPa Calm     37% 0 mm 0.0 W/m2
02:34 23 °C 7.5 °C 1008 hPa Calm     37% 0 mm 0.0 W/m2
02:39 23.1 °C 7.6 °C 1008 hPa Calm     37% 0 mm 0.0 W/m2
02:44 23 °C 7.5 °C 1007.7 hPa Calm     37% 0 mm 0.0 W/m2
02:49 22.9 °C 7.4 °C 1007.7 hPa Calm     37% 0 mm 0.0 W/m2
02:59 22.8 °C 7.3 °C 1008 hPa Calm     37% 0 mm 0.0 W/m2
03:04 22.8 °C 7.3 °C 1008 hPa Calm     37% 0 mm 0.0 W/m2
03:09 22.7 °C 7.6 °C 1008 hPa Calm     38% 0 mm 0.0 W/m2
03:14 22.6 °C 6.8 °C 1008 hPa Calm     36% 0 mm 0.0 W/m2
03:19 22.4 °C 7 °C 1008 hPa Calm     37% 0 mm 0.0 W/m2
03:24 22.3 °C 7.3 °C 1008 hPa Calm     38% 0 mm 0.0 W/m2
03:30 22.2 °C 7.2 °C 1007.7 hPa Calm     38% 0 mm 0.0 W/m2
03:35 22.1 °C 7.5 °C 1007.7 hPa Calm     39% 0 mm 0.0 W/m2
03:40 21.9 °C 7.3 °C 1008 hPa Calm     39% 0 mm 0.0 W/m2
03:45 21.7 °C 6.8 °C 1008 hPa Calm     38% 0 mm 0.0 W/m2
03:50 21.7 °C 7.1 °C 1008 hPa Calm     39% 0 mm 0.0 W/m2
03:55 21.8 °C 7.2 °C 1008 hPa Calm     39% 0 mm 0.0 W/m2
04:01 21.9 °C 7.3 °C 1008 hPa Calm     39% 0 mm 0.0 W/m2
04:11 21.9 °C 6.9 °C 1008 hPa Calm     38% 0 mm 0.0 W/m2
04:16 21.7 °C 6.8 °C 1008 hPa Calm     38% 0 mm 0.0 W/m2
04:22 21.7 °C 7.1 °C 1007.7 hPa Calm     39% 0 mm 0.0 W/m2
04:27 22 °C 7 °C 1007.7 hPa Calm     38% 0 mm 0.0 W/m2
04:32 22.3 °C 7.3 °C 1008 hPa Calm     38% 0 mm 0.0 W/m2
04:37 22.7 °C 7.6 °C 1007.7 hPa Calm     38% 0 mm 0.0 W/m2
04:43 22.9 °C 7.4 °C 1007.7 hPa Calm     37% 0 mm 0.0 W/m2
04:53 22.9 °C 6.6 °C 1008 hPa Calm     35% 0 mm 0.0 W/m2
04:58 22.7 °C 6.9 °C 1008 hPa Calm     36% 0 mm 0.0 W/m2
05:03 22.4 °C 6.6 °C 1008 hPa Calm     36% 0 mm 0.0 W/m2
05:08 22.4 °C 6.6 °C 1008.4 hPa Calm     36% 0 mm 0.0 W/m2
05:13 22.3 °C 6.9 °C 1008.4 hPa Calm     37% 0 mm 0.0 W/m2
05:18 22.3 °C 6.9 °C 1008.4 hPa Calm     37% 0 mm 0.0 W/m2
05:24 22.3 °C 6.9 °C 1008.4 hPa Calm     37% 0 mm 0.0 W/m2
05:29 22.2 °C 6.8 °C 1008.4 hPa Calm     37% 0 mm 0.0 W/m2
05:34 22.1 °C 7.5 °C 1008.4 hPa Calm     39% 0 mm 0.0 W/m2
05:40 22.4 °C 9.5 °C 1008.4 hPa Calm     44% 0 mm 0.0 W/m2
05:45 22.5 °C 7.9 °C 1008.4 hPa Calm     39% 0 mm 5.0 W/m2
05:50 22.5 °C 8.6 °C 1008.4 hPa Calm     41% 0 mm 9.0 W/m2
05:55 22.2 °C 7.2 °C 1008.4 hPa Calm     38% 0 mm 12.0 W/m2
06:00 21.9 °C 7.3 °C 1008.7 hPa Calm     39% 0 mm 16.0 W/m2
06:05 21.8 °C 7.2 °C 1008.7 hPa Calm     39% 0 mm 21.0 W/m2
06:12 21.9 °C 7.7 °C 1008.7 hPa Calm     40% 0 mm 26.0 W/m2
06:17 22.1 °C 8.6 °C 1008.4 hPa Calm     42% 0 mm 37.0 W/m2
06:27 23.2 °C 11.9 °C 1008.7 hPa Calm     49% 0 mm 62.0 W/m2
06:30 23.6 °C 11.9 °C 1008.4 hPa Calm     48% 0 mm 70.0 W/m2
06:39 23.7 °C 12 °C 1008.4 hPa Calm     48% 0 mm 86.0 W/m2
06:48 24 °C 12 °C 1008.7 hPa Calm   3.2 km/h 47% 0 mm 102.0 W/m2
06:57 24.3 °C 12.3 °C 1008.7 hPa SSW 9.7 km/h 9.7 km/h 47% 0 mm 197.0 W/m2
08:03 25.5 °C 11.3 °C 1008.7 hPa Calm   6.4 km/h 41% 0 mm 255.0 W/m2
08:18 25.8 °C 11.2 °C 1008.7 hPa SSW 1.4 km/h 11.3 km/h 40% 0 mm 385.0 W/m2
08:33 26.8 °C 11.3 °C 1009 hPa Calm   17.7 km/h 38% 0 mm 455.0 W/m2
08:58 27.7 °C 11.3 °C 1008.7 hPa North 16.3 km/h 27.4 km/h 36% 0 mm 555.0 W/m2
09:12 28.2 °C 10.8 °C 1008.7 hPa North 25.9 km/h 29 km/h 34% 0 mm 624.0 W/m2
09:33 28.6 °C 11.2 °C 1008.7 hPa North 27.4 km/h 27.4 km/h 34% 0 mm 606.0 W/m2
09:40 28.9 °C 10.5 °C 1008.4 hPa North 20.9 km/h 32.2 km/h 32% 0 mm 700.0 W/m2
09:48 29.2 °C 10.8 °C 1008.4 hPa NNW 14.3 km/h 33.8 km/h 32% 0 mm 724.0 W/m2
09:54 29.4 °C 11 °C 1008.4 hPa North 17.7 km/h 35.4 km/h 32% 0 mm 731.0 W/m2
10:00 29.6 °C 11.2 °C 1008.4 hPa North 7.9 km/h 25.7 km/h 32% 0 mm 749.0 W/m2
10:08 29.9 °C 10.4 °C 1008.4 hPa NNE 13 km/h 24.1 km/h 30% 0 mm 772.0 W/m2
10:18 30.4 °C 10.4 °C 1008.4 hPa NNW 14.3 km/h 33.8 km/h 29% 0 mm 795.0 W/m2
10:23 30.3 °C 10.8 °C 1008.4 hPa North 22.7 km/h 25.7 km/h 30% 0 mm 803.0 W/m2
10:28 30.4 °C 10.9 °C 1008.4 hPa NNW 20.9 km/h 33.8 km/h 30% 0 mm 810.0 W/m2
10:34 30.7 °C 11.1 °C 1008 hPa NW 25.9 km/h 33.8 km/h 30% 0 mm 824.0 W/m2
10:39 30.8 °C 10.7 °C 1008.4 hPa North 13 km/h 24.1 km/h 29% 0 mm 830.0 W/m2
10:53 31.3 °C 11.1 °C 1008.4 hPa North 14.3 km/h 25.7 km/h 29% 0 mm 858.0 W/m2
11:00 31.2 °C 11.1 °C 1008 hPa NNW 19.5 km/h 24.1 km/h 29% 0 mm 868.0 W/m2
11:05 31.1 °C 11 °C 1008 hPa NNW 17.7 km/h 29 km/h 29% 0 mm 874.0 W/m2
11:16 31.2 °C 10.5 °C 1007.7 hPa North 20.9 km/h 30.6 km/h 28% 0 mm 895.0 W/m2
11:27 31.8 °C 10.5 °C 1007.7 hPa North 22.7 km/h 32.2 km/h 27% 0 mm 907.0 W/m2
11:38 31.9 °C 10.6 °C 1007.7 hPa North 24.1 km/h 32.2 km/h 27% 0 mm 919.0 W/m2
11:52 32.3 °C 10.9 °C 1007.3 hPa NE 11.1 km/h 19.3 km/h 27% 0 mm 933.0 W/m2
12:11 33.3 °C 10.6 °C 1007 hPa North 13 km/h 24.1 km/h 25% 0 mm 949.0 W/m2
12:25 33.2 °C 10.5 °C 1007 hPa NW 7.9 km/h 24.1 km/h 25% 0 mm 953.0 W/m2
12:41 33.9 °C 9.9 °C 1006.3 hPa NNE 9.7 km/h 24.1 km/h 23% 0 mm 956.0 W/m2
13:03 34.9 °C 9.3 °C 1006.3 hPa North 19.5 km/h 27.4 km/h 21% 0 mm 958.0 W/m2
13:19 34.7 °C 9.9 °C 1006 hPa NNW 11.1 km/h 20.9 km/h 22% 0 mm 946.0 W/m2
19:10 35.7 °C 4.1 °C 1002.9 hPa Calm     14% 0 mm 12.0 W/m2
19:18 35.6 °C 4 °C 1002.9 hPa Calm     14% 0 mm 11.0 W/m2
19:29 35.6 °C 4 °C 1002.9 hPa Calm     14% 0 mm 5.0 W/m2
19:57 35.3 °C 2.7 °C 1002.9 hPa Calm     13% 0 mm 0.0 W/m2
20:22 34.7 °C 2.2 °C 1003.3 hPa Calm     13% 0 mm 0.0 W/m2
20:31 34.4 °C 2 °C 1003.6 hPa ENE 17.7 km/h 17.7 km/h 13% 0 mm 0.0 W/m2
20:41 32.2 °C 9.1 °C 1003.9 hPa SSW 27.4 km/h 30.6 km/h 24% 0 mm 0.0 W/m2
20:52 31.4 °C 9 °C 1004.3 hPa SW 20.9 km/h 29 km/h 25% 0 mm 0.0 W/m2
21:03 30.8 °C 9.1 °C 1004.6 hPa SSW 25.9 km/h 33.8 km/h 26% 0 mm 0.0 W/m2
21:11 30.5 °C 8.8 °C 1004.6 hPa SSW 17.7 km/h 24.1 km/h 26% 0 mm 0.0 W/m2
21:21 30.3 °C 9.2 °C 1004.6 hPa SSW 20.9 km/h 22.5 km/h 27% 0 mm 0.0 W/m2
21:30 30.3 °C 9.2 °C 1005 hPa SW 14.3 km/h 22.5 km/h 27% 0 mm 0.0 W/m2
21:39 30.1 °C 9 °C 1005.3 hPa SSW 16.3 km/h 24.1 km/h 27% 0 mm 0.0 W/m2
21:49 30 °C 9 °C 1005.3 hPa SSW 24.1 km/h 30.6 km/h 27% 0 mm 0.0 W/m2
21:55 29.9 °C 8.9 °C 1005.3 hPa South 24.1 km/h 30.6 km/h 27% 0 mm 0.0 W/m2
22:47 29.1 °C 9.3 °C 1006.3 hPa SW 13 km/h 17.7 km/h 29% 0 mm 0.0 W/m2
22:55 29 °C 9.7 °C 1006.7 hPa SW 9.7 km/h 16.1 km/h 30% 0 mm 0.0 W/m2
23:04 28.9 °C 9.6 °C 1006.7 hPa SW 9.7 km/h 16.1 km/h 30% 0 mm 0.0 W/m2
23:14 28.7 °C 9.4 °C 1006.7 hPa SW 13 km/h 17.7 km/h 30% 0 mm 0.0 W/m2
23:24 28.6 °C 9.3 °C 1006.3 hPa SW 16.3 km/h 16.3 km/h 30% 0 mm 0.0 W/m2
23:29 28.5 °C 9.2 °C 1006.3 hPa SW 11.1 km/h 16.1 km/h 30% 0 mm 0.0 W/m2
23:34 28.5 °C 9.2 °C 1006.3 hPa SW 13 km/h 14.5 km/h 30% 0 mm 0.0 W/m2
23:39 28.4 °C 9.2 °C 1006.3 hPa SW 9.7 km/h 12.9 km/h 30% 0 mm 0.0 W/m2
23:45 28.4 °C 9.2 °C 1006.3 hPa SW 11.1 km/h 12.9 km/h 30% 0 mm 0.0 W/m2
23:51 28.3 °C 9.6 °C 1006.3 hPa SW 6.4 km/h 11.3 km/h 31% 0 mm 0.0 W/m2
23:56 28.3 °C 9.6 °C 1006.7 hPa SW 7.9 km/h 9.7 km/h 31% 0 mm 0.0 W/m2
Canyon Roadhouse, Fishriver Canyon, Namibia
Compliments of Weather Underground - 2.25 mb